Fulton County Airport Brown Field Atlanta US
ICAO: KFTY
IATA: FTY
Category: Medium
Scheduled Services: No

Elevation: 841 ft
TransAlt. 18000 ft.

Airport Communications:
ATLANTA APP/DEP:121
ATIS:120.175
CTAF:118.45
GND:121.7
MACON RDO:122.2
COUNTY TWR:118.45
UNICOM:122.95

KFTY Zoom In..

Runways:

(A) RW 08 length 5797 ft width 100 ft
ILS 109.10 / hdg 85

(B) RW 09 length 2801 ft width 60 ft
---- / hdg 85

(C) RW 14 length 4158 ft width 100 ft
---- / hdg 144

(D) RW 26 length 5797 ft width 100 ft
---- / hdg 265

(E) RW 27 length 2801 ft width 60 ft
---- / hdg 265

(F) RW 32 length 4158 ft width 100 ft
---- / hdg 324

Location; KFTY
Day. 24 / Time. 07.40 Zulu
* Altimeter: 30.07
* Temperature: 22° c. 71.6°f.
* Wind from: 090° Speed 03 kn.
Dewpoint: 22° c.
Visibility: 10 Statute Miles.
Clouds: Broken 600 ft.

KFTY 240740Z 09003KT 10SM BKN006 22/22 A3007 RMK AO2 T02170217


Wind From 090°
Speed 03 kn.

 
 
jpsmedia.com for Web Design SOUNDCLOUD worldairports.se 2018   terms of use